• Join FlightAware (Why Join?)
  • Login
  • US Flag 
09:36PM EDT


 

Airport Tracker/Info


-or-


 

Live Flight TrackerFlight Track Log ✈ N128CM ✈ 22-Mar-2009 ✈ KOVE - KBTM

Flight Track Log - Related Links

Times and Time Zones

All times are in EDT time to prevent confusion due to time zone crossing. See the N128CM flight status page for this flight to view local times or setup timezone preferences in your user account.

Time Position Orientation Groundspeed Altitude Reporting Facility
EDT Latitude Longitude Course Direction KTS MPH feet Rate Location/Type
02:11PM 39.5483 -121.6490 17° North 3,900  Level Oakland Center
02:12PM 39.5858 -121.6340 13° North 151 174 5,000 1,080 Climbing Oakland Center
02:13PM 39.6131 -121.6260 313° West 151 174 5,700 1,200 Climbing Oakland Center
02:14PM 39.6358 -121.6580 297° West 125 144 6,900 1,200 Climbing Oakland Center
02:15PM 39.6542 -121.7040 322° Northwest 118 136 8,200 1,320 Climbing Oakland Center
02:16PM 39.6833 -121.7340 359° North 130 150 9,600 1,200 Climbing Oakland Center
02:17PM 39.7250 -121.7350 39° Northeast 130 150 10,700 900 Climbing Oakland Center
02:18PM 39.7586 -121.7000 96° East 139 160 11,500 900 Climbing Oakland Center
02:19PM 39.7525 -121.6300 96° East 141 162 12,600 1,020 Climbing Oakland Center
02:20PM 39.7467 -121.5590 92° East 156 180 13,600 900 Climbing Oakland Center
02:21PM 39.7450 -121.4860 57° Northeast 182 209 14,500 960 Climbing Oakland Center
02:22PM 39.7744 -121.4270 68° East 182 209 15,600 1,140 Climbing Oakland Center
02:23PM 39.7956 -121.3600 64° Northeast 187 215 16,800 1,080 Climbing Oakland Center
02:24PM 39.8186 -121.2980 67° East 192 221 17,800 1,020 Climbing Oakland Center
02:25PM 39.8397 -121.2330 65° Northeast 192 221 18,900 960 Climbing Oakland Center
02:26PM 39.8628 -121.1680 59° Northeast 192 221 19,800 840 Climbing Oakland Center
02:27PM 39.8900 -121.1090 64° Northeast 192 221 20,600 840 Climbing Oakland Center
02:28PM 39.9169 -121.0380 66° East 197 227 21,500 840 Climbing Oakland Center
02:29PM 39.9419 -120.9650 46° Northeast 202 232 22,300 720 Climbing Oakland Center
02:30PM 39.9817 -120.9110 47° Northeast 202 232 23,000 600 Climbing Oakland Center
02:31PM 40.0150 -120.8650 52° Northeast 207 238 23,500 600 Climbing Oakland Center
02:32PM 40.0586 -120.7920 48° Northeast 212 244 24,300 600 Climbing Oakland Center
02:33PM 40.1003 -120.7320 49° Northeast 212 244 24,800 300 Climbing Oakland Center
02:34PM 40.1397 -120.6720 47° Northeast 212 244 25,000 60 Climbing Oakland Center
02:35PM 40.1958 -120.5930 50° Northeast 222 255 25,000  Level Oakland Center
02:36PM 40.2414 -120.5220 44° Northeast 234 269 25,000  Level Oakland Center
02:37PM 40.2828 -120.4700 49° Northeast 245 282 25,000  Level Oakland Center
02:38PM 40.3344 -120.3930 49° Northeast 245 282 25,000  Level Oakland Center
02:39PM 40.3842 -120.3190 49° Northeast 256 295 25,000  Level Oakland Center
02:40PM 40.4317 -120.2480 48° Northeast 263 303 25,000  Level Oakland Center
02:41PM 40.4853 -120.1710 50° Northeast 263 303 25,000  Level Oakland Center
02:42PM 40.5369 -120.0910 30° Northeast 263 303 25,000  Level Oakland Center
02:42PM 40.5461 -120.0840 49° Northeast 263 303 25,000  Level Salt Lake Center
02:43PM 40.5961 -120.0090 48° Northeast 268 308 25,000  Level Salt Lake Center
02:44PM 40.6461 -119.9360 48° Northeast 268 308 25,000  Level Salt Lake Center
02:45PM 40.6958 -119.8640 48° Northeast 268 308 25,000  Level Salt Lake Center
02:46PM 40.7456 -119.7910 50° Northeast 268 308 25,000  Level Salt Lake Center
02:47PM 40.7956 -119.7130 48° Northeast 268 308 25,000  Level Salt Lake Center
02:48PM 40.8475 -119.6370 48° Northeast 268 308 25,000  Level Salt Lake Center
02:49PM 40.8947 -119.5670 49° Northeast 266 306 25,000  Level Salt Lake Center
02:50PM 40.9469 -119.4880 45° Northeast 266 306 25,000  Level Salt Lake Center
02:51PM 40.9864 -119.4360 52° Northeast 266 306 25,000  Level Salt Lake Center
02:52PM 41.0464 -119.3340 49° Northeast 260 299 25,000  Level Salt Lake Center
02:53PM 41.0892 -119.2680 48° Northeast 260 299 25,000  Level Salt Lake Center
02:54PM 41.1456 -119.1840 49° Northeast 266 306 25,000  Level Salt Lake Center
02:55PM 41.1947 -119.1100 50° Northeast 266 306 25,000  Level Salt Lake Center
02:56PM 41.2419 -119.0360 48° Northeast 266 306 25,000  Level Salt Lake Center
02:57PM 41.2867 -118.9700 49° Northeast 266 306 25,000  Level Salt Lake Center
02:58PM 41.3358 -118.8960 49° Northeast 273 314 25,000  Level Salt Lake Center
02:59PM 41.3919 -118.8110 49° Northeast 268 308 25,000  Level Salt Lake Center
03:00PM 41.4414 -118.7340 48° Northeast 268 308 25,000  Level Salt Lake Center
03:01PM 41.4856 -118.6680 49° Northeast 268 308 25,000  Level Salt Lake Center
03:02PM 41.5347 -118.5930 49° Northeast 268 308 25,000  Level Salt Lake Center
03:03PM 41.5906 -118.5080 50° Northeast 273 314 25,000  Level Salt Lake Center
03:04PM 41.6397 -118.4310 50° Northeast 273 314 25,000  Level Salt Lake Center
03:05PM 41.6842 -118.3610 50° Northeast 273 314 25,000  Level Salt Lake Center
03:06PM 41.7331 -118.2830 49° Northeast 268 308 25,000  Level Salt Lake Center
03:07PM 41.7914 -118.1920 47° Northeast 273 314 25,000  Level Salt Lake Center
03:08PM 41.8422 -118.1180 49° Northeast 280 322 25,000  Level Salt Lake Center
03:09PM 41.8908 -118.0420 52° Northeast 280 322 25,000  Level Salt Lake Center
03:10PM 41.9356 -117.9660 48° Northeast 274 315 25,000  Level Salt Lake Center
03:11PM 41.9908 -117.8830 50° Northeast 274 315 25,000  Level Salt Lake Center
03:12PM 42.0417 -117.8020 51° Northeast 274 315 25,000  Level Salt Lake Center
03:13PM 42.0906 -117.7210 47° Northeast 274 315 25,000  Level Salt Lake Center
03:14PM 42.1389 -117.6500 50° Northeast 279 321 25,000  Level Salt Lake Center
03:15PM 42.1919 -117.5640 49° Northeast 279 321 25,000  Level Salt Lake Center
03:16PM 42.2425 -117.4850 52° Northeast 279 321 25,000  Level Salt Lake Center
03:17PM 42.2889 -117.4060 50° Northeast 288 331 25,000  Level Salt Lake Center
03:18PM 42.3372 -117.3290 50° Northeast 273 314 25,000  Level Salt Lake Center
03:19PM 42.3903 -117.2420 51° Northeast 268 308 25,000  Level Salt Lake Center
03:20PM 42.4386 -117.1620 51° Northeast 273 314 25,000  Level Salt Lake Center
03:21PM 42.4825 -117.0880 49° Northeast 273 314 25,000  Level Salt Lake Center
03:22PM 42.5464 -116.9870 52° Northeast 268 308 25,000  Level Salt Lake Center
03:23PM 42.5947 -116.9040 48° Northeast 274 315 25,000  Level Salt Lake Center
03:24PM 42.6403 -116.8360 52° Northeast 267 307 25,000  Level Salt Lake Center
03:25PM 42.6883 -116.7530 50° Northeast 279 321 25,000  Level Salt Lake Center
03:27PM 42.7408 -116.6670 52° Northeast 279 321 25,000  Level Salt Lake Center
03:28PM 42.7936 -116.5760 49° Northeast 274 315 25,000  Level Salt Lake Center
03:29PM 42.8503 -116.4880 50° Northeast 269 310 25,000  Level Salt Lake Center
03:30PM 42.8978 -116.4100 52° Northeast 269 310 25,000  Level Salt Lake Center
03:31PM 42.9458 -116.3260 52° Northeast 274 315 25,000  Level Salt Lake Center
03:32PM 42.9892 -116.2510 50° Northeast 269 310 25,000  Level Salt Lake Center
03:33PM 43.0433 -116.1640 51° Northeast 274 315 25,000  Level Salt Lake Center
03:34PM 43.0908 -116.0830 51° Northeast 269 310 25,000  Level Salt Lake Center
03:35PM 43.1364 -116.0050 49° Northeast 269 310 25,000  Level Salt Lake Center
03:36PM 43.1833 -115.9320 53° Northeast 269 310 25,000  Level Salt Lake Center
03:37PM 43.2311 -115.8450 51° Northeast 269 310 25,000  Level Salt Lake Center
03:38PM 43.2783 -115.7660 51° Northeast 269 310 25,000  Level Salt Lake Center
03:39PM 43.3258 -115.6840 52° Northeast 269 310 25,000  Level Salt Lake Center
03:40PM 43.3664 -115.6130 51° Northeast 274 315 25,000  Level Salt Lake Center
03:41PM 43.4181 -115.5260 51° Northeast 268 308 25,000  Level Salt Lake Center
03:42PM 43.4628 -115.4490 51° Northeast 268 308 25,000  Level Salt Lake Center
03:43PM 43.5056 -115.3750 51° Northeast 268 308 25,000  Level Salt Lake Center
03:44PM 43.5525 -115.2960 53° Northeast 268 308 25,000  Level Salt Lake Center
03:45PM 43.6017 -115.2070 51° Northeast 268 308 25,000  Level Salt Lake Center
03:46PM 43.6486 -115.1280 51° Northeast 268 308 25,000  Level Salt Lake Center
03:47PM 43.6911 -115.0560 51° Northeast 268 308 25,000  Level Salt Lake Center
03:48PM 43.7422 -114.9680 51° Northeast 268 308 25,000  Level Salt Lake Center
03:49PM 43.7867 -114.8910 51° Northeast 268 308 25,000  Level Salt Lake Center
03:50PM 43.8333 -114.8100 54° Northeast 268 308 25,000  Level Salt Lake Center
03:51PM 43.8714 -114.7380 53° Northeast 268 308 25,000  Level Salt Lake Center
03:52PM 43.9203 -114.6490 50° Northeast 268 308 25,000  Level Salt Lake Center
03:53PM 43.9667 -114.5710 51° Northeast 268 308 25,000  Level Salt Lake Center
03:54PM 44.0108 -114.4960 54° Northeast 268 308 25,000  Level Salt Lake Center
03:55PM 44.0486 -114.4230 50° Northeast 262 302 25,000  Level Salt Lake Center
03:56PM 44.0992 -114.3400 54° Northeast 262 302 25,000  Level Salt Lake Center
03:57PM 44.1414 -114.2580 52° Northeast 257 296 25,000  Level Salt Lake Center
03:58PM 44.1853 -114.1800 50° Northeast 257 296 25,000  Level Salt Lake Center
03:59PM 44.2250 -114.1130 52° Northeast 262 302 25,000  Level Salt Lake Center
04:00PM 44.2756 -114.0230 51° Northeast 262 302 25,000  Level Salt Lake Center
04:01PM 44.3214 -113.9440 52° Northeast 262 302 25,000  Level Salt Lake Center
04:02PM 44.3694 -113.8590 39° Northeast 262 302 25,000  Level Salt Lake Center
04:03PM 44.4256 -113.7960 14° North 262 302 25,000  Level Salt Lake Center
04:04PM 44.4992 -113.7700 24° Northeast 264 304 25,000 -300 Level Salt Lake Center
04:05PM 44.5647 -113.7300 20° North 269 310 24,500 -600 Descending Salt Lake Center
04:06PM 44.6428 -113.6900 30° Northeast 288 331 23,800 -900 Descending Salt Lake Center
04:07PM 44.7150 -113.6320 24° Northeast 278 320 22,800 -1,080 Descending Salt Lake Center
04:08PM 44.7869 -113.5860 34° Northeast 278 320 21,700 -1,200 Descending Salt Lake Center
04:09PM 44.8403 -113.5360 26° Northeast 263 303 20,500 -1,500 Descending Salt Lake Center
04:10PM 44.9039 -113.4930 25° Northeast 250 288 18,800 -1,740 Descending Salt Lake Center
04:11PM 44.9694 -113.4490 24° Northeast 245 282 17,100 -1,320 Descending Salt Lake Center
04:12PM 45.0161 -113.4190 25° Northeast 239 275 16,200 -1,200 Descending Salt Lake Center
04:13PM 45.0817 -113.3750 26° Northeast 222 255 14,700 -780 Descending Salt Lake Center
04:14PM 45.1303 -113.3420 27° Northeast 217 250 14,700 -60 Level Salt Lake Center
04:15PM 45.1894 -113.3000 34° Northeast 212 244 14,600 -60 Descending Salt Lake Center
04:16PM 45.2364 -113.2550 28° Northeast 213 245 14,600  Level Salt Lake Center
04:17PM 45.2914 -113.2130 32° Northeast 213 245 14,600  Level Salt Lake Center
04:18PM 45.3358 -113.1740 31° Northeast 208 239 14,600 -120 Level Salt Lake Center
04:19PM 45.3889 -113.1290 36° Northeast 213 245 14,400 -60 Descending Salt Lake Center
04:20PM 45.4419 -113.0750 36° Northeast 218 251 14,500 -60 Climbing Salt Lake Center
04:21PM 45.4931 -113.0210 33° Northeast 213 245 14,300 -60 Descending Salt Lake Center
04:22PM 45.5397 -112.9780 17° North 218 251 14,400 -120 Climbing Salt Lake Center
04:23PM 45.6069 -112.9480 37° Northeast 218 251 14,100 -660 Descending Salt Lake Center
04:24PM 45.6600 -112.8910 31° Northeast 218 251 13,100 -780 Descending Salt Lake Center
04:25PM 45.7128 -112.8450 42° Northeast 223 257 12,600 -300 Descending Salt Lake Center
04:26PM 45.7575 -112.7870 40° Northeast 223 257 12,500 -240 Descending Salt Lake Center
04:27PM 45.7981 -112.7380 40° Northeast 204 235 12,200 -300 Descending Salt Lake Center
04:28PM 45.8406 -112.6860 42° Northeast 199 229 12,000 -720 Descending Salt Lake Center
04:29PM 45.8831 -112.6310 42° Northeast 194 223 10,800 -1,260 Descending Salt Lake Center